createdAt,value
2017-09-19T00:01:49.202Z,3.45
2017-09-19T00:04:17.470Z,2.70
2017-09-19T00:06:44.987Z,2.20
2017-09-19T00:09:12.501Z,2.33
2017-09-19T00:11:40.786Z,6.07
2017-09-19T00:14:09.050Z,3.58
2017-09-19T00:16:37.369Z,2.42
2017-09-19T00:19:04.859Z,2.15
2017-09-19T00:21:32.363Z,2.42
2017-09-19T00:24:00.654Z,6.03
2017-09-19T00:26:28.195Z,2.00
2017-09-19T00:28:55.710Z,2.83
2017-09-19T00:31:23.209Z,1.92
2017-09-19T00:33:51.514Z,2.22
2017-09-19T00:36:19.014Z,2.50
2017-09-19T00:38:46.532Z,1.95
2017-09-19T00:41:14.026Z,1.92
2017-09-19T00:43:41.550Z,2.20
2017-09-19T00:46:09.052Z,7.18
2017-09-19T00:48:36.562Z,2.62
2017-09-19T00:51:04.074Z,2.65
2017-09-19T00:53:31.590Z,3.45
2017-09-19T00:55:59.090Z,2.37
2017-09-19T00:58:26.603Z,2.90
2017-09-19T01:00:54.107Z,2.85
2017-09-19T01:03:21.618Z,2.60
2017-09-19T01:05:49.114Z,2.30
2017-09-19T01:08:16.639Z,2.90
2017-09-19T01:10:44.150Z,3.00
2017-09-19T01:13:11.659Z,8.18
2017-09-19T01:15:39.181Z,2.72
2017-09-19T01:18:07.450Z,2.58
2017-09-19T01:20:35.735Z,2.70
2017-09-19T01:23:04.007Z,4.90
2017-09-19T01:25:32.286Z,5.03
2017-09-19T01:28:00.550Z,2.00
2017-09-19T01:30:28.066Z,3.85
2017-09-19T01:32:55.567Z,2.60
2017-09-19T01:35:23.087Z,2.42
2017-09-19T01:37:50.592Z,3.58
2017-09-19T01:40:18.875Z,2.15
2017-09-19T01:42:47.147Z,3.40
2017-09-19T01:45:14.666Z,2.17
2017-09-19T01:47:42.165Z,2.00
2017-09-19T01:50:10.451Z,2.22
2017-09-19T01:52:38.707Z,3.62
2017-09-19T01:55:06.247Z,2.42
2017-09-19T01:57:33.742Z,3.28
2017-09-19T02:00:02.002Z,3.10
2017-09-19T02:02:29.519Z,4.35
2017-09-19T02:04:57.013Z,2.70
2017-09-19T02:07:24.556Z,2.10
2017-09-19T02:09:52.072Z,2.83
2017-09-19T02:12:19.587Z,2.15
2017-09-19T02:14:47.083Z,2.60
2017-09-19T02:17:15.374Z,2.87
2017-09-19T02:19:42.873Z,2.45
2017-09-19T02:22:10.386Z,3.10
2017-09-19T02:24:37.887Z,2.28
2017-09-19T02:27:05.411Z,2.53
2017-09-19T02:29:32.996Z,2.90
2017-09-19T02:32:00.518Z,2.70
2017-09-19T02:34:28.015Z,3.28
2017-09-19T02:36:55.536Z,5.70
2017-09-19T02:39:23.047Z,3.47
2017-09-19T02:41:50.594Z,3.55
2017-09-19T02:44:18.092Z,3.25
2017-09-19T02:46:45.586Z,3.10
2017-09-19T02:49:13.098Z,3.25
2017-09-19T02:51:40.594Z,3.53
2017-09-19T02:54:08.125Z,3.97
2017-09-19T02:56:35.617Z,3.17
2017-09-19T02:59:03.129Z,4.05
2017-09-19T03:01:30.638Z,4.20
2017-09-19T03:03:58.154Z,5.40
2017-09-19T03:06:25.646Z,5.00
2017-09-19T03:08:53.165Z,4.75
2017-09-19T03:11:20.654Z,5.10
2017-09-19T03:13:48.929Z,5.03
2017-09-19T03:16:17.202Z,6.57
2017-09-19T03:18:45.478Z,5.65
2017-09-19T03:21:13.745Z,7.40
2017-09-19T03:23:42.030Z,4.90
2017-09-19T03:26:10.305Z,6.70
2017-09-19T03:28:38.583Z,5.40
2017-09-19T03:31:06.099Z,6.90
2017-09-19T03:33:33.595Z,4.60
2017-09-19T03:36:01.879Z,7.95
2017-09-19T03:38:30.150Z,5.70
2017-09-19T03:40:58.447Z,6.50
2017-09-19T03:43:25.947Z,6.55
2017-09-19T03:45:53.457Z,6.47
2017-09-19T03:48:20.958Z,6.40
2017-09-19T03:50:48.473Z,5.93
2017-09-19T03:53:16.738Z,7.93
2017-09-19T03:55:45.023Z,7.50
2017-09-19T03:58:13.297Z,7.53
2017-09-19T04:00:41.578Z,6.65
2017-09-19T04:03:09.850Z,12.88
2017-09-19T04:05:38.135Z,7.30
2017-09-19T04:08:06.402Z,8.05
2017-09-19T04:10:33.915Z,8.80
2017-09-19T04:13:01.416Z,7.95
2017-09-19T04:15:28.934Z,10.48
2017-09-19T04:17:56.451Z,10.63
2017-09-19T04:20:24.754Z,7.78
2017-09-19T04:22:52.258Z,10.35
2017-09-19T04:25:19.763Z,9.57
2017-09-19T04:27:47.280Z,12.18
2017-09-19T04:30:14.785Z,9.98
2017-09-19T04:32:42.294Z,9.90
2017-09-19T04:35:09.802Z,8.73
2017-09-19T04:37:37.318Z,10.70
2017-09-19T04:40:04.810Z,9.00
2017-09-19T04:42:32.331Z,12.07
2017-09-19T04:44:59.848Z,10.90
2017-09-19T04:47:27.390Z,10.63
2017-09-19T04:49:54.901Z,9.55
2017-09-19T04:52:22.422Z,10.23
2017-09-19T04:54:49.922Z,11.15
2017-09-19T04:57:17.440Z,10.38
2017-09-19T04:59:44.939Z,11.27
2017-09-19T05:02:12.478Z,10.77
2017-09-19T05:04:39.994Z,10.25
2017-09-19T05:07:07.540Z,9.40
2017-09-19T05:09:35.818Z,9.82
2017-09-19T05:12:04.074Z,8.82
2017-09-19T05:14:31.593Z,11.43
2017-09-19T05:16:59.096Z,9.00
2017-09-19T05:19:26.621Z,10.80
2017-09-19T05:21:54.118Z,8.02
2017-09-19T05:24:22.398Z,8.30
2017-09-19T05:26:50.671Z,9.57
2017-09-19T05:29:18.966Z,10.95
2017-09-19T05:31:47.235Z,12.02
2017-09-19T05:34:15.522Z,8.82
2017-09-19T05:36:43.787Z,12.77
2017-09-19T05:39:12.078Z,8.65
2017-09-19T05:41:39.579Z,12.75
2017-09-19T05:44:07.112Z,8.93
2017-09-19T05:46:34.617Z,10.77
2017-09-19T05:49:02.119Z,7.85
2017-09-19T05:51:29.640Z,9.43
2017-09-19T05:53:57.134Z,11.00
2017-09-19T05:56:24.647Z,13.77
2017-09-19T05:58:52.135Z,9.85
2017-09-19T06:01:20.414Z,11.18
2017-09-19T06:03:48.696Z,7.43
2017-09-19T06:06:16.985Z,8.77
2017-09-19T06:08:56.364Z,8.75
2017-09-19T06:11:23.899Z,8.57
2017-09-19T06:13:51.400Z,7.28
2017-09-19T06:16:18.902Z,8.98
2017-09-19T06:18:46.426Z,7.53
2017-09-19T06:21:14.061Z,6.25
2017-09-19T06:23:41.595Z,8.32
2017-09-19T06:26:09.101Z,7.93
2017-09-19T06:28:36.613Z,8.27
2017-09-19T06:31:04.114Z,7.65
2017-09-19T06:33:31.618Z,7.32
2017-09-19T06:35:59.110Z,9.25
2017-09-19T06:38:26.622Z,7.72
2017-09-19T06:40:54.878Z,8.35
2017-09-19T06:43:22.389Z,7.28
2017-09-19T06:45:49.887Z,5.85
2017-09-19T06:48:17.419Z,7.40
2017-09-19T06:50:44.922Z,8.90
2017-09-19T06:53:13.186Z,6.62
2017-09-19T06:55:40.714Z,6.95
2017-09-19T06:58:08.265Z,7.00
2017-09-19T07:00:35.783Z,17.17
2017-09-19T07:03:03.282Z,9.82
2017-09-19T07:05:30.800Z,8.52
2017-09-19T07:07:59.078Z,8.93
2017-09-19T07:10:27.363Z,11.98
2017-09-19T07:12:54.856Z,9.52
2017-09-19T07:15:22.375Z,6.75
2017-09-19T07:17:50.636Z,8.35
2017-09-19T07:20:18.915Z,9.60
2017-09-19T07:22:46.414Z,10.93
2017-09-19T07:25:13.926Z,8.38
2017-09-19T07:27:41.422Z,9.30
2017-09-19T07:30:08.946Z,10.70
2017-09-19T07:32:37.234Z,9.90
2017-09-19T07:35:05.538Z,7.50
2017-09-19T07:37:33.042Z,8.75
2017-09-19T07:40:00.564Z,9.80
2017-09-19T07:42:28.870Z,9.10
2017-09-19T07:44:56.371Z,8.75
2017-09-19T07:47:24.843Z,9.07
2017-09-19T07:49:52.356Z,11.30
2017-09-19T07:52:20.656Z,9.68
2017-09-19T07:54:48.167Z,8.50
2017-09-19T07:57:15.699Z,19.83
2017-09-19T07:59:43.206Z,50.53
2017-09-19T08:02:11.571Z,44.33
2017-09-19T08:04:39.911Z,33.28
2017-09-19T08:07:07.636Z,40.55
2017-09-19T08:09:35.151Z,101.32
2017-09-19T08:12:02.831Z,41.70
2017-09-19T08:14:30.336Z,24.05
2017-09-19T08:16:57.882Z,18.17
2017-09-19T08:19:25.386Z,13.38
2017-09-19T08:21:52.889Z,13.23
2017-09-19T08:24:20.411Z,12.60
2017-09-19T08:26:47.952Z,8.45
2017-09-19T08:29:15.467Z,9.60
2017-09-19T08:31:42.973Z,12.68
2017-09-19T08:34:10.532Z,14.15
2017-09-19T08:36:38.039Z,17.62
2017-09-19T08:39:06.345Z,16.65
2017-09-19T08:41:33.854Z,15.48
2017-09-19T08:44:01.352Z,10.60
2017-09-19T08:46:28.876Z,14.02
2017-09-19T08:48:56.382Z,8.73
2017-09-19T08:51:23.903Z,8.45
2017-09-19T08:53:52.179Z,8.00
2017-09-19T08:56:20.466Z,8.07
2017-09-19T08:58:48.734Z,8.18
2017-09-19T09:01:17.059Z,9.25
2017-09-19T09:03:44.562Z,9.18
2017-09-19T09:06:12.087Z,9.35
2017-09-19T09:08:39.599Z,8.68
2017-09-19T09:11:07.954Z,7.20
2017-09-19T09:13:35.462Z,7.55
2017-09-19T09:16:02.964Z,7.07
2017-09-19T09:18:30.531Z,6.60
2017-09-19T09:20:58.116Z,7.43
2017-09-19T09:23:26.414Z,10.73
2017-09-19T09:25:54.077Z,11.38
2017-09-19T09:28:21.593Z,7.53
2017-09-19T09:30:49.868Z,8.55
2017-09-19T09:33:17.396Z,7.97
2017-09-19T09:35:44.906Z,7.53
2017-09-19T09:38:13.194Z,7.68
2017-09-19T09:40:40.694Z,7.90
2017-09-19T09:43:08.258Z,9.38
2017-09-19T09:45:35.759Z,8.13
2017-09-19T09:48:04.060Z,7.72
2017-09-19T09:50:31.580Z,7.50
2017-09-19T09:52:59.102Z,7.55
2017-09-19T09:55:26.614Z,8.90
2017-09-19T09:57:54.891Z,7.10
2017-09-19T10:00:24.226Z,7.60
2017-09-19T10:02:51.743Z,6.90
2017-09-19T10:05:20.022Z,7.90
2017-09-19T10:07:47.543Z,7.22
2017-09-19T10:10:15.042Z,9.05
2017-09-19T10:12:43.347Z,7.47
2017-09-19T10:15:10.860Z,7.47
2017-09-19T10:17:38.359Z,8.55
2017-09-19T10:20:05.882Z,8.80
2017-09-19T10:22:33.370Z,8.38
2017-09-19T10:25:00.896Z,7.93
2017-09-19T10:27:28.390Z,8.25
2017-09-19T10:29:55.916Z,7.50
2017-09-19T10:32:23.413Z,6.57
2017-09-19T10:34:50.951Z,6.32
2017-09-19T10:37:19.227Z,6.68
2017-09-19T10:39:46.759Z,8.05
2017-09-19T10:42:14.254Z,5.95
2017-09-19T10:44:42.547Z,6.57
2017-09-19T10:47:10.052Z,7.07
2017-09-19T10:49:37.602Z,9.38
2017-09-19T10:52:05.096Z,6.10
2017-09-19T10:54:32.620Z,8.73
2017-09-19T10:57:00.143Z,6.80
2017-09-19T10:59:27.671Z,8.32
2017-09-19T11:01:55.182Z,7.20
2017-09-19T11:04:22.702Z,6.78
2017-09-19T11:06:50.977Z,10.45
2017-09-19T11:09:19.278Z,13.40
2017-09-19T11:11:46.779Z,9.70
2017-09-19T11:14:14.295Z,8.35
2017-09-19T11:16:41.822Z,17.00
2017-09-19T11:19:10.099Z,10.38
2017-09-19T11:21:38.394Z,7.50
2017-09-19T11:24:06.655Z,7.62
2017-09-19T11:26:34.934Z,7.22
2017-09-19T11:29:03.208Z,9.30
2017-09-19T11:31:31.522Z,7.45
2017-09-19T11:33:59.030Z,10.45
2017-09-19T11:36:26.577Z,5.80
2017-09-19T11:38:54.079Z,7.80
2017-09-19T11:41:21.619Z,6.00
2017-09-19T11:43:49.135Z,5.18
2017-09-19T11:46:16.662Z,7.53
2017-09-19T11:48:44.154Z,8.98
2017-09-19T11:51:11.686Z,5.95
2017-09-19T11:53:39.206Z,6.30
2017-09-19T11:56:06.734Z,6.47
2017-09-19T11:58:34.254Z,5.22
2017-09-19T12:01:01.791Z,6.60
2017-09-19T12:03:29.281Z,6.28
2017-09-19T12:05:57.016Z,6.22
2017-09-19T12:08:25.302Z,5.10
2017-09-19T12:10:52.839Z,5.30
2017-09-19T12:13:20.342Z,7.30
2017-09-19T12:15:47.866Z,6.10
2017-09-19T12:18:15.367Z,5.78
2017-09-19T12:20:42.899Z,6.07
2017-09-19T12:23:11.199Z,7.55
2017-09-19T12:25:38.711Z,6.68
2017-09-19T12:28:06.218Z,4.35
2017-09-19T12:30:33.724Z,5.22
2017-09-19T12:33:01.248Z,5.45
2017-09-19T12:35:28.756Z,6.20
2017-09-19T12:37:57.051Z,3.90
2017-09-19T12:40:24.578Z,6.32
2017-09-19T12:42:52.087Z,5.00
2017-09-19T12:45:19.605Z,7.18
2017-09-19T12:47:47.126Z,6.22
2017-09-19T12:50:14.630Z,5.05
2017-09-19T12:52:42.906Z,9.27
2017-09-19T12:55:10.394Z,4.80
2017-09-19T12:57:37.923Z,10.57
2017-09-19T13:00:05.435Z,5.35
2017-09-19T13:02:33.007Z,5.22
2017-09-19T13:05:00.540Z,5.78
2017-09-19T13:07:28.162Z,4.55
2017-09-19T13:09:55.675Z,4.18
2017-09-19T13:12:23.297Z,4.93
2017-09-19T13:14:50.794Z,5.53
2017-09-19T13:17:18.331Z,4.80
2017-09-19T13:19:45.914Z,7.40
2017-09-19T13:22:13.452Z,4.03
2017-09-19T13:24:40.964Z,3.55
2017-09-19T13:27:08.474Z,3.62
2017-09-19T13:29:36.117Z,3.35
2017-09-19T13:35:28.275Z,4.20
2017-09-19T13:37:56.583Z,4.97
2017-09-19T13:40:24.104Z,1.90
2017-09-19T13:42:52.404Z,1.80
2017-09-19T13:45:19.935Z,1.62
2017-09-19T13:47:47.459Z,2.12
2017-09-19T13:50:14.966Z,1.17
2017-09-19T13:52:43.262Z,1.60
2017-09-19T13:55:10.775Z,1.50
2017-09-19T13:57:38.278Z,1.35
2017-09-19T14:00:05.810Z,2.35
2017-09-19T14:02:34.104Z,2.03
2017-09-19T14:05:01.633Z,1.62
2017-09-19T14:07:29.131Z,2.60
2017-09-19T14:09:56.665Z,2.30
2017-09-19T14:12:24.956Z,2.55
2017-09-19T14:14:52.466Z,2.70
2017-09-19T14:17:19.982Z,3.83
2017-09-19T14:19:47.501Z,3.97
2017-09-19T14:22:15.007Z,3.25
2017-09-19T14:24:42.577Z,2.75
2017-09-19T14:27:10.088Z,2.47
2017-09-19T14:29:37.635Z,2.70
2017-09-19T14:32:05.140Z,2.12
2017-09-19T14:34:32.817Z,1.95
2017-09-19T14:37:00.328Z,1.77
2017-09-19T14:39:27.834Z,1.67
2017-09-19T14:41:55.372Z,2.22
2017-09-19T14:44:22.869Z,1.75
2017-09-19T14:46:50.398Z,1.85
2017-09-19T14:49:17.897Z,3.60
2017-09-19T14:51:45.472Z,3.10
2017-09-19T14:54:12.985Z,1.58
2017-09-19T14:56:40.524Z,3.30
2017-09-19T14:59:08.024Z,3.10
2017-09-19T15:01:35.547Z,1.83
2017-09-19T15:04:03.077Z,4.75
2017-09-19T15:06:30.594Z,1.90
2017-09-19T15:08:58.101Z,4.10
2017-09-19T15:11:26.395Z,1.70
2017-09-19T15:13:54.672Z,2.78
2017-09-19T15:16:22.230Z,1.87
2017-09-19T15:18:50.502Z,2.90
2017-09-19T15:21:18.806Z,2.67
2017-09-19T15:23:46.359Z,6.18
2017-09-19T15:26:13.882Z,1.95
2017-09-19T15:28:41.442Z,2.35
2017-09-19T15:31:08.972Z,2.60
2017-09-19T15:33:36.511Z,4.28
2017-09-19T15:36:04.071Z,2.45
2017-09-19T15:38:31.635Z,1.55
2017-09-19T15:40:59.147Z,4.87
2017-09-19T15:43:27.452Z,16.08
2017-09-19T15:45:54.963Z,9.38
2017-09-19T15:48:22.510Z,9.23
2017-09-19T15:50:50.026Z,7.95
2017-09-19T15:53:17.551Z,2.25
2017-09-19T15:55:45.074Z,3.20
2017-09-19T15:58:12.608Z,1.70
2017-09-19T16:00:40.218Z,2.00
2017-09-19T16:03:07.750Z,1.40
2017-09-19T16:05:35.270Z,1.42
2017-09-19T16:08:03.615Z,1.23
2017-09-19T16:10:31.123Z,1.37
2017-09-19T16:12:58.683Z,4.40
2017-09-19T16:15:26.216Z,2.15
2017-09-19T16:17:54.507Z,1.90
2017-09-19T16:26:24.328Z,1.70
2017-09-19T16:28:51.854Z,1.50
2017-09-19T16:31:19.359Z,1.62
2017-09-19T16:33:47.674Z,1.50
2017-09-19T16:36:15.200Z,1.73
2017-09-19T16:38:43.491Z,5.12
2017-09-19T16:41:10.998Z,3.70
2017-09-19T16:43:38.524Z,1.58
2017-09-19T16:46:06.023Z,2.05
2017-09-19T16:48:33.546Z,3.58
2017-09-19T16:51:01.055Z,2.10
2017-09-19T16:53:28.587Z,1.67
2017-09-19T16:55:56.082Z,1.77
2017-09-19T16:58:24.418Z,1.80
2017-09-19T17:00:51.939Z,2.12
2017-09-19T17:03:19.437Z,1.75
2017-09-19T17:05:46.947Z,2.60
2017-09-19T17:08:15.215Z,2.60
2017-09-19T17:10:43.514Z,2.00
2017-09-19T17:13:11.018Z,1.80
2017-09-19T17:15:38.538Z,1.90
2017-09-19T17:18:06.052Z,3.15
2017-09-19T17:20:33.575Z,4.10
2017-09-19T17:23:01.082Z,3.20
2017-09-19T17:25:29.363Z,4.18
2017-09-19T17:27:57.676Z,3.58
2017-09-19T17:30:27.258Z,5.90
2017-09-19T17:32:55.561Z,3.03
2017-09-19T17:35:23.089Z,4.47
2017-09-19T17:37:51.412Z,3.00
2017-09-19T17:40:18.955Z,5.78
2017-09-19T17:42:46.498Z,2.78
2017-09-19T17:45:14.794Z,2.92
2017-09-19T17:47:42.314Z,2.97
2017-09-19T17:50:10.595Z,2.33
2017-09-19T17:52:38.871Z,3.30
2017-09-19T17:55:07.164Z,1.60
2017-09-19T17:57:35.426Z,1.90
2017-09-19T18:00:03.757Z,1.48
2017-09-19T18:02:31.278Z,3.08
2017-09-19T18:04:58.830Z,2.30
2017-09-19T18:07:27.132Z,2.05
2017-09-19T18:09:54.686Z,5.07
2017-09-19T18:12:22.222Z,3.00
2017-09-19T18:14:50.769Z,2.53
2017-09-19T18:17:18.363Z,2.15
2017-09-19T18:19:45.887Z,2.33
2017-09-19T18:22:14.187Z,2.60
2017-09-19T18:24:42.475Z,2.55
2017-09-19T18:27:10.775Z,3.87
2017-09-19T18:29:38.337Z,2.53
2017-09-19T18:32:05.958Z,4.60
2017-09-19T18:34:34.392Z,4.75
2017-09-19T18:37:01.977Z,2.60
2017-09-19T18:39:29.478Z,2.75
2017-09-19T18:41:57.127Z,2.70
2017-09-19T18:44:25.385Z,2.78
2017-09-19T18:46:53.064Z,2.83
2017-09-19T18:49:20.691Z,3.15
2017-09-19T18:51:49.002Z,3.00
2017-09-19T18:54:16.917Z,2.85
2017-09-19T18:56:44.438Z,3.20
2017-09-19T18:59:11.999Z,3.10
2017-09-19T19:01:39.518Z,2.97
2017-09-19T19:04:07.049Z,3.65
2017-09-19T19:06:34.626Z,4.15
2017-09-19T19:09:02.163Z,10.30
2017-09-19T19:11:29.740Z,2.70
2017-09-19T19:13:57.314Z,2.72
2017-09-19T19:16:24.836Z,2.78
2017-09-19T19:18:52.347Z,3.03
2017-09-19T19:21:20.609Z,4.03
2017-09-19T19:23:48.906Z,4.43
2017-09-19T19:26:16.419Z,2.58
2017-09-19T19:28:43.950Z,2.50
2017-09-19T19:31:11.467Z,3.10
2017-09-19T19:33:39.754Z,3.47
2017-09-19T19:36:07.303Z,2.72
2017-09-19T19:38:34.839Z,2.28
2017-09-19T19:41:02.398Z,3.97
2017-09-19T19:43:29.912Z,2.40
2017-09-19T19:45:57.524Z,4.55
2017-09-19T19:48:25.045Z,2.15
2017-09-19T19:50:52.565Z,2.20
2017-09-19T19:53:20.851Z,4.70
2017-09-19T19:55:49.117Z,2.97
2017-09-19T19:58:17.441Z,2.75
2017-09-19T20:00:45.035Z,2.87
2017-09-19T20:03:12.595Z,2.90
2017-09-19T20:05:40.157Z,2.90
2017-09-19T20:08:07.736Z,2.80
2017-09-19T20:10:36.022Z,3.03
2017-09-19T20:13:04.290Z,3.28
2017-09-19T20:15:32.591Z,4.15
2017-09-19T20:18:00.097Z,3.00
2017-09-19T20:20:27.624Z,2.85
2017-09-19T20:22:55.118Z,3.42
2017-09-19T20:25:22.649Z,3.80
2017-09-19T20:27:50.162Z,3.12
2017-09-19T20:30:18.448Z,3.87
2017-09-19T20:32:46.760Z,3.42
2017-09-19T20:35:14.279Z,3.00
2017-09-19T20:37:41.782Z,4.00
2017-09-19T20:40:09.331Z,3.22
2017-09-19T20:42:36.837Z,3.20
2017-09-19T20:45:05.125Z,4.47
2017-09-19T20:47:33.404Z,2.85
2017-09-19T20:50:01.712Z,3.55
2017-09-19T20:52:29.213Z,3.53
2017-09-19T20:54:56.739Z,3.55
2017-09-19T20:57:24.256Z,2.67
2017-09-19T20:59:52.561Z,2.45
2017-09-19T21:02:20.061Z,3.37
2017-09-19T21:04:53.213Z,3.30
2017-09-19T21:07:26.326Z,2.90
2017-09-19T21:09:59.716Z,2.90
2017-09-19T21:12:32.960Z,3.35
2017-09-19T21:15:06.189Z,2.78
2017-09-19T21:17:39.248Z,2.70
2017-09-19T21:20:07.133Z,3.10
2017-09-19T21:22:34.647Z,5.28
2017-09-19T21:25:02.930Z,4.70
2017-09-19T21:27:30.452Z,4.45
2017-09-19T21:29:57.967Z,4.10
2017-09-19T21:32:25.506Z,3.53
2017-09-19T21:34:53.775Z,3.28
2017-09-19T21:37:22.058Z,2.83
2017-09-19T21:39:50.330Z,9.25
2017-09-19T21:42:18.631Z,4.05
2017-09-19T21:44:46.135Z,3.10
2017-09-19T21:47:13.649Z,3.20
2017-09-19T21:49:41.149Z,3.90
2017-09-19T21:52:08.697Z,3.37
2017-09-19T21:54:36.202Z,3.50
2017-09-19T21:57:03.720Z,3.20
2017-09-19T21:59:31.231Z,4.10
2017-09-19T22:01:59.551Z,4.00
2017-09-19T22:04:27.050Z,3.65
2017-09-19T22:06:55.331Z,3.95
2017-09-19T22:09:23.642Z,7.85
2017-09-19T22:11:51.159Z,4.60
2017-09-19T22:14:18.686Z,4.18
2017-09-19T22:16:46.186Z,4.03
2017-09-19T22:19:14.470Z,4.43
2017-09-19T22:21:42.774Z,4.60
2017-09-19T22:24:10.297Z,4.35
2017-09-19T22:26:37.794Z,3.83
2017-09-19T22:29:05.319Z,3.85
2017-09-19T22:31:33.596Z,4.70
2017-09-19T22:34:01.899Z,4.57
2017-09-19T22:36:29.402Z,5.55
2017-09-19T22:38:56.931Z,4.55
2017-09-19T22:41:25.194Z,4.32
2017-09-19T22:43:52.727Z,4.40
2017-09-19T22:46:21.004Z,4.43
2017-09-19T22:48:49.282Z,5.30
2017-09-19T22:51:16.783Z,8.13
2017-09-19T22:53:44.298Z,6.65
2017-09-19T22:56:11.799Z,4.68
2017-09-19T22:58:39.322Z,9.48
2017-09-19T23:01:07.597Z,6.18
2017-09-19T23:03:35.891Z,5.50
2017-09-19T23:06:03.398Z,6.37
2017-09-19T23:08:30.906Z,5.93
2017-09-19T23:10:58.442Z,7.30
2017-09-19T23:13:26.000Z,7.47
2017-09-19T23:15:53.570Z,8.02
2017-09-19T23:18:21.839Z,9.00
2017-09-19T23:20:49.359Z,8.32
2017-09-19T23:23:16.867Z,7.10
2017-09-19T23:25:45.163Z,9.60
2017-09-19T23:28:12.666Z,16.92
2017-09-19T23:30:40.183Z,7.30
2017-09-19T23:33:07.686Z,8.30
2017-09-19T23:35:35.202Z,7.93
2017-09-19T23:38:02.722Z,9.82
2017-09-19T23:40:30.251Z,8.82
2017-09-19T23:42:57.769Z,9.13
2017-09-19T23:45:25.302Z,8.85
2017-09-19T23:47:53.578Z,10.05
2017-09-19T23:50:21.862Z,10.30
2017-09-19T23:52:50.137Z,11.15
2017-09-19T23:55:17.672Z,11.15
2017-09-19T23:57:45.182Z,15.88
